Sky Ever — DSQX9 — position and weather

sailwx.info

Track history (hours):
 
Tides and Currents Weather Stations Pressure Air Temp Water Temp Dewpoint Dewpoint Depression Visibility Wind Speed Wind Dir Waves Ship Positions

Sky Ever

Last reported at 2016-Apr-06 09:33 UTC. Time now 2016-May-01 21:12 UTC.
Position N 33°43' E 130°15'.
Warning: this ship's position is 25 days out of date.

Length 76 m; draft 5.2 m.

Type: Cargo ship. MMSI: 441751000.

Date/timePositionNaut miles runAvg speedWind from/ knotsBaromVisibWave heightAir tempDewpointWater temp
2016-Apr-06 09:33N 33°43' E 130°15'8 7.6
2016-Apr-06 08:33N 33°39' E 130°22'2 1.7
2016-Apr-06 07:32N 33°38' E 130°24'0 0.0
2016-Apr-06 06:32N 33°38' E 130°24'0 0.0
2016-Apr-06 05:32N 33°38' E 130°24'0 0.0
2016-Apr-06 04:32N 33°38' E 130°24'0 0.0
2016-Apr-06 03:32N 33°38' E 130°24'0 0.0
2016-Apr-06 02:32N 33°38' E 130°24'0 0.0
2016-Apr-06 01:32N 33°38' E 130°24'0 0.0
2016-Apr-06 00:23N 33°38' E 130°24'0 0.0
2016-Apr-05 23:32N 33°38' E 130°24'0 0.0
2016-Apr-05 22:20N 33°38' E 130°24'0 0.0
2016-Apr-05 21:32N 33°38' E 130°24'0 0.0
2016-Apr-05 20:32N 33°38' E 130°24'0 0.0
2016-Apr-05 19:32N 33°38' E 130°24'0 0.0
2016-Apr-05 18:29N 33°38' E 130°24'0 0.0
2016-Apr-05 17:32N 33°38' E 130°24'0 0.0
2016-Apr-05 16:23N 33°38' E 130°24'0 0.0
2016-Apr-05 15:32N 33°38' E 130°24'0 0.0
2016-Apr-05 14:32N 33°38' E 130°24'0 0.0
2016-Apr-05 13:32N 33°38' E 130°24'0 0.0
2016-Apr-05 12:32N 33°38' E 130°24'0 0.0
2016-Apr-05 11:29N 33°38' E 130°24'0 0.0
2016-Apr-05 10:32N 33°38' E 130°24'0 0.0
2016-Apr-05 09:32N 33°38' E 130°24'0 0.0
2016-Apr-05 08:33N 33°38' E 130°24'0 0.0
2016-Apr-05 07:32N 33°38' E 130°24'0 0.0
2016-Apr-05 06:29N 33°38' E 130°24'0 0.0
2016-Apr-05 05:33N 33°38' E 130°24'0 0.0
2016-Apr-05 04:32N 33°38' E 130°24'0 0.0
2016-Apr-05 03:32N 33°38' E 130°24'0 0.0
2016-Apr-05 02:32N 33°38' E 130°24'0 0.0
2016-Apr-05 01:34N 33°38' E 130°24'0 0.0
2016-Apr-05 00:31N 33°38' E 130°24'0 0.0
2016-Apr-04 23:32N 33°38' E 130°24'0 0.0
2016-Apr-04 22:31N 33°38' E 130°24'0 0.0
2016-Apr-04 21:32N 33°38' E 130°24'0 0.0
2016-Apr-04 20:32N 33°38' E 130°24'0 0.0
2016-Apr-04 19:32N 33°38' E 130°24'0 0.0
2016-Apr-04 18:32N 33°38' E 130°24'0 0.0
2016-Apr-04 17:32N 33°38' E 130°24'0 0.0
2016-Apr-04 16:32N 33°38' E 130°24'0 0.0
2016-Apr-04 15:32N 33°38' E 130°24'0 0.0
2016-Apr-04 14:31N 33°38' E 130°24'0 0.0
2016-Apr-04 13:33N 33°38' E 130°24'0 0.0
2016-Apr-04 12:32N 33°38' E 130°24'0 0.0
2016-Apr-04 11:32N 33°38' E 130°24'0 0.0
2016-Apr-04 10:32N 33°38' E 130°24'0 0.0
2016-Apr-04 09:32N 33°38' E 130°24'0 0.0
2016-Apr-04 08:32N 33°38' E 130°24'0 0.0
2016-Apr-04 07:32N 33°38' E 130°24'0 0.0
2016-Apr-04 06:32N 33°38' E 130°24'0 0.0
2016-Apr-04 05:32N 33°38' E 130°24'0 0.0
2016-Apr-04 04:33N 33°38' E 130°24'1 0.5
2016-Apr-04 03:33N 33°39' E 130°24'7 7.0
2016-Apr-04 02:33N 33°39' E 130°16'2 2.5
2016-Apr-04 01:33N 33°41' E 130°16'7 6.5
2016-Apr-04 00:33N 33°48' E 130°15'  
Track history (hours):
 
Tides and Currents Weather Stations Pressure Air Temp Water Temp Dewpoint Dewpoint Depression Visibility Wind Speed Wind Dir Waves Ship Positions

Sky Ever

Last reported at 2016-Apr-06 09:33 UTC. Time now 2016-May-01 21:12 UTC.
Position N 33°43' E 130°15'.
Warning: this ship's position is 25 days out of date.

Length 76 m; draft 5.2 m.

Type: Cargo ship. MMSI: 441751000.

Date/timePositionNaut miles runAvg speedWind from/ knotsBaromVisibWave heightAir tempDewpointWater temp
2016-Apr-06 09:33N 33°43' E 130°15'8 7.6
2016-Apr-06 08:33N 33°39' E 130°22'2 1.7
2016-Apr-06 07:32N 33°38' E 130°24'0 0.0
2016-Apr-06 06:32N 33°38' E 130°24'0 0.0
2016-Apr-06 05:32N 33°38' E 130°24'0 0.0
2016-Apr-06 04:32N 33°38' E 130°24'0 0.0
2016-Apr-06 03:32N 33°38' E 130°24'0 0.0
2016-Apr-06 02:32N 33°38' E 130°24'0 0.0
2016-Apr-06 01:32N 33°38' E 130°24'0 0.0
2016-Apr-06 00:23N 33°38' E 130°24'0 0.0
2016-Apr-05 23:32N 33°38' E 130°24'0 0.0
2016-Apr-05 22:20N 33°38' E 130°24'0 0.0
2016-Apr-05 21:32N 33°38' E 130°24'0 0.0
2016-Apr-05 20:32N 33°38' E 130°24'0 0.0
2016-Apr-05 19:32N 33°38' E 130°24'0 0.0
2016-Apr-05 18:29N 33°38' E 130°24'0 0.0
2016-Apr-05 17:32N 33°38' E 130°24'0 0.0
2016-Apr-05 16:23N 33°38' E 130°24'0 0.0
2016-Apr-05 15:32N 33°38' E 130°24'0 0.0
2016-Apr-05 14:32N 33°38' E 130°24'0 0.0
2016-Apr-05 13:32N 33°38' E 130°24'0 0.0
2016-Apr-05 12:32N 33°38' E 130°24'0 0.0
2016-Apr-05 11:29N 33°38' E 130°24'0 0.0
2016-Apr-05 10:32N 33°38' E 130°24'0 0.0
2016-Apr-05 09:32N 33°38' E 130°24'0 0.0
2016-Apr-05 08:33N 33°38' E 130°24'0 0.0
2016-Apr-05 07:32N 33°38' E 130°24'0 0.0
2016-Apr-05 06:29N 33°38' E 130°24'0 0.0
2016-Apr-05 05:33N 33°38' E 130°24'0 0.0
2016-Apr-05 04:32N 33°38' E 130°24'0 0.0
2016-Apr-05 03:32N 33°38' E 130°24'0 0.0
2016-Apr-05 02:32N 33°38' E 130°24'0 0.0
2016-Apr-05 01:34N 33°38' E 130°24'0 0.0
2016-Apr-05 00:31N 33°38' E 130°24'0 0.0
2016-Apr-04 23:32N 33°38' E 130°24'0 0.0
2016-Apr-04 22:31N 33°38' E 130°24'0 0.0
2016-Apr-04 21:32N 33°38' E 130°24'0 0.0
2016-Apr-04 20:32N 33°38' E 130°24'0 0.0
2016-Apr-04 19:32N 33°38' E 130°24'0 0.0
2016-Apr-04 18:32N 33°38' E 130°24'0 0.0
2016-Apr-04 17:32N 33°38' E 130°24'0 0.0
2016-Apr-04 16:32N 33°38' E 130°24'0 0.0
2016-Apr-04 15:32N 33°38' E 130°24'0 0.0
2016-Apr-04 14:31N 33°38' E 130°24'0 0.0
2016-Apr-04 13:33N 33°38' E 130°24'0 0.0
2016-Apr-04 12:32N 33°38' E 130°24'0 0.0
2016-Apr-04 11:32N 33°38' E 130°24'0 0.0
2016-Apr-04 10:32N 33°38' E 130°24'0 0.0
2016-Apr-04 09:32N 33°38' E 130°24'0 0.0
2016-Apr-04 08:32N 33°38' E 130°24'0 0.0
2016-Apr-04 07:32N 33°38' E 130°24'0 0.0
2016-Apr-04 06:32N 33°38' E 130°24'0 0.0
2016-Apr-04 05:32N 33°38' E 130°24'0 0.0
2016-Apr-04 04:33N 33°38' E 130°24'1 0.5
2016-Apr-04 03:33N 33°39' E 130°24'7 7.0
2016-Apr-04 02:33N 33°39' E 130°16'2 2.5
2016-Apr-04 01:33N 33°41' E 130°16'7 6.5
2016-Apr-04 00:33N 33°48' E 130°15'  

Dump ship's entire track history